sensor_id;sensor_type;location;lat;lon;timestamp;P1;durP1;ratioP1;P2;durP2;ratioP2
26582;SDS011;14230;45.382;10.998;2023-04-24T00:02:15;11.07;;;9.82;;
26582;SDS011;14230;45.382;10.998;2023-04-24T00:04:43;16.67;;;11.48;;
26582;SDS011;14230;45.382;10.998;2023-04-24T00:07:13;15.18;;;11.43;;
26582;SDS011;14230;45.382;10.998;2023-04-24T00:09:44;16.38;;;11.93;;
26582;SDS011;14230;45.382;10.998;2023-04-24T00:12:11;17.17;;;10.75;;
26582;SDS011;14230;45.382;10.998;2023-04-24T00:14:39;14.55;;;12.10;;
26582;SDS011;14230;45.382;10.998;2023-04-24T00:17:06;19.92;;;12.40;;
26582;SDS011;14230;45.382;10.998;2023-04-24T00:19:34;14.02;;;12.00;;
26582;SDS011;14230;45.382;10.998;2023-04-24T00:22:01;16.98;;;12.05;;
26582;SDS011;14230;45.382;10.998;2023-04-24T00:24:29;15.63;;;12.48;;
26582;SDS011;14230;45.382;10.998;2023-04-24T00:26:57;18.38;;;13.23;;
26582;SDS011;14230;45.382;10.998;2023-04-24T00:29:25;16.17;;;13.18;;
26582;SDS011;14230;45.382;10.998;2023-04-24T00:31:53;17.95;;;14.45;;
26582;SDS011;14230;45.382;10.998;2023-04-24T00:34:21;21.33;;;14.00;;
26582;SDS011;14230;45.382;10.998;2023-04-24T00:36:48;16.42;;;14.25;;
26582;SDS011;14230;45.382;10.998;2023-04-24T00:39:19;18.02;;;14.02;;
26582;SDS011;14230;45.382;10.998;2023-04-24T00:41:47;18.02;;;14.43;;
26582;SDS011;14230;45.382;10.998;2023-04-24T00:44:14;20.95;;;14.40;;
26582;SDS011;14230;45.382;10.998;2023-04-24T00:46:42;16.42;;;12.90;;
26582;SDS011;14230;45.382;10.998;2023-04-24T00:49:10;21.25;;;14.32;;
26582;SDS011;14230;45.382;10.998;2023-04-24T00:51:38;17.23;;;14.77;;
26582;SDS011;14230;45.382;10.998;2023-04-24T00:54:07;20.05;;;14.07;;
26582;SDS011;14230;45.382;10.998;2023-04-24T00:56:34;16.90;;;13.77;;
26582;SDS011;14230;45.382;10.998;2023-04-24T00:59:03;19.63;;;14.90;;
26582;SDS011;14230;45.382;10.998;2023-04-24T01:01:31;19.98;;;15.50;;
26582;SDS011;14230;45.382;10.998;2023-04-24T01:03:59;22.58;;;15.57;;
26582;SDS011;14230;45.382;10.998;2023-04-24T01:06:28;20.25;;;14.60;;
26582;SDS011;14230;45.382;10.998;2023-04-24T01:08:58;17.63;;;14.05;;
26582;SDS011;14230;45.382;10.998;2023-04-24T01:11:29;21.58;;;14.48;;
26582;SDS011;14230;45.382;10.998;2023-04-24T01:13:57;19.77;;;14.45;;
26582;SDS011;14230;45.382;10.998;2023-04-24T01:16:25;19.15;;;14.82;;
26582;SDS011;14230;45.382;10.998;2023-04-24T01:18:53;19.85;;;14.60;;
26582;SDS011;14230;45.382;10.998;2023-04-24T01:21:21;20.42;;;16.30;;
26582;SDS011;14230;45.382;10.998;2023-04-24T01:23:50;22.65;;;15.55;;
26582;SDS011;14230;45.382;10.998;2023-04-24T01:26:18;20.05;;;15.48;;
26582;SDS011;14230;45.382;10.998;2023-04-24T01:28:47;19.08;;;14.70;;
26582;SDS011;14230;45.382;10.998;2023-04-24T01:31:15;26.00;;;16.20;;
26582;SDS011;14230;45.382;10.998;2023-04-24T01:33:42;20.35;;;15.30;;
26582;SDS011;14230;45.382;10.998;2023-04-24T01:36:10;19.33;;;14.93;;
26582;SDS011;14230;45.382;10.998;2023-04-24T01:38:38;20.60;;;15.93;;
26582;SDS011;14230;45.382;10.998;2023-04-24T01:41:05;22.55;;;16.60;;
26582;SDS011;14230;45.382;10.998;2023-04-24T01:43:33;23.05;;;17.23;;
26582;SDS011;14230;45.382;10.998;2023-04-24T01:46:00;22.88;;;16.33;;
26582;SDS011;14230;45.382;10.998;2023-04-24T01:48:28;25.40;;;17.13;;
26582;SDS011;14230;45.382;10.998;2023-04-24T01:50:56;23.92;;;17.25;;
26582;SDS011;14230;45.382;10.998;2023-04-24T01:53:24;24.48;;;17.83;;
26582;SDS011;14230;45.382;10.998;2023-04-24T01:55:51;22.85;;;16.23;;
26582;SDS011;14230;45.382;10.998;2023-04-24T01:58:19;18.13;;;15.25;;
26582;SDS011;14230;45.382;10.998;2023-04-24T02:00:46;20.40;;;15.13;;
26582;SDS011;14230;45.382;10.998;2023-04-24T02:03:14;20.40;;;15.88;;
26582;SDS011;14230;45.382;10.998;2023-04-24T02:05:43;25.92;;;17.75;;
26582;SDS011;14230;45.382;10.998;2023-04-24T02:08:12;21.25;;;16.13;;
26582;SDS011;14230;45.382;10.998;2023-04-24T02:10:39;22.42;;;17.10;;
26582;SDS011;14230;45.382;10.998;2023-04-24T02:13:06;26.88;;;17.45;;
26582;SDS011;14230;45.382;10.998;2023-04-24T02:15:34;25.50;;;17.83;;
26582;SDS011;14230;45.382;10.998;2023-04-24T02:18:03;25.77;;;18.05;;
26582;SDS011;14230;45.382;10.998;2023-04-24T02:20:31;31.48;;;20.58;;
26582;SDS011;14230;45.382;10.998;2023-04-24T02:23:01;27.38;;;21.55;;
26582;SDS011;14230;45.382;10.998;2023-04-24T02:25:28;32.13;;;21.85;;
26582;SDS011;14230;45.382;10.998;2023-04-24T02:27:56;35.13;;;22.95;;
26582;SDS011;14230;45.382;10.998;2023-04-24T02:30:23;31.98;;;23.83;;
26582;SDS011;14230;45.382;10.998;2023-04-24T02:32:52;30.20;;;23.25;;
26582;SDS011;14230;45.382;10.998;2023-04-24T02:35:19;34.95;;;24.20;;
26582;SDS011;14230;45.382;10.998;2023-04-24T02:37:46;36.72;;;24.67;;
26582;SDS011;14230;45.382;10.998;2023-04-24T02:40:14;40.10;;;26.45;;
26582;SDS011;14230;45.382;10.998;2023-04-24T02:42:42;34.45;;;24.73;;
26582;SDS011;14230;45.382;10.998;2023-04-24T02:45:09;35.92;;;25.58;;
26582;SDS011;14230;45.382;10.998;2023-04-24T02:47:37;35.05;;;25.42;;
26582;SDS011;14230;45.382;10.998;2023-04-24T02:50:05;37.53;;;26.73;;
26582;SDS011;14230;45.382;10.998;2023-04-24T02:52:33;36.83;;;26.65;;
26582;SDS011;14230;45.382;10.998;2023-04-24T02:55:00;38.42;;;28.42;;
26582;SDS011;14230;45.382;10.998;2023-04-24T02:57:28;35.17;;;25.67;;
26582;SDS011;14230;45.382;10.998;2023-04-24T02:59:55;33.70;;;24.85;;
26582;SDS011;14230;45.382;10.998;2023-04-24T03:02:22;36.92;;;25.00;;
26582;SDS011;14230;45.382;10.998;2023-04-24T03:04:56;35.35;;;24.95;;
26582;SDS011;14230;45.382;10.998;2023-04-24T03:07:24;38.20;;;27.15;;
26582;SDS011;14230;45.382;10.998;2023-04-24T03:09:51;39.85;;;25.30;;
26582;SDS011;14230;45.382;10.998;2023-04-24T03:12:19;35.75;;;25.45;;
26582;SDS011;14230;45.382;10.998;2023-04-24T03:14:46;37.53;;;28.23;;
26582;SDS011;14230;45.382;10.998;2023-04-24T03:17:14;39.60;;;26.27;;
26582;SDS011;14230;45.382;10.998;2023-04-24T03:19:41;35.08;;;24.60;;
26582;SDS011;14230;45.382;10.998;2023-04-24T03:22:10;37.33;;;26.52;;
26582;SDS011;14230;45.382;10.998;2023-04-24T03:24:40;41.05;;;27.80;;
26582;SDS011;14230;45.382;10.998;2023-04-24T03:27:07;40.25;;;26.80;;
26582;SDS011;14230;45.382;10.998;2023-04-24T03:29:54;35.33;;;25.25;;
26582;SDS011;14230;45.382;10.998;2023-04-24T03:32:38;33.15;;;25.13;;
26582;SDS011;14230;45.382;10.998;2023-04-24T03:35:08;37.33;;;24.67;;
26582;SDS011;14230;45.382;10.998;2023-04-24T03:37:36;42.30;;;25.95;;
26582;SDS011;14230;45.382;10.998;2023-04-24T03:40:22;35.55;;;25.23;;
26582;SDS011;14230;45.382;10.998;2023-04-24T03:42:49;36.97;;;26.73;;
26582;SDS011;14230;45.382;10.998;2023-04-24T03:45:18;37.42;;;26.38;;
26582;SDS011;14230;45.382;10.998;2023-04-24T03:47:48;37.72;;;26.67;;
26582;SDS011;14230;45.382;10.998;2023-04-24T03:50:18;39.97;;;27.92;;
26582;SDS011;14230;45.382;10.998;2023-04-24T03:52:47;36.92;;;25.80;;
26582;SDS011;14230;45.382;10.998;2023-04-24T03:55:24;37.70;;;27.10;;
26582;SDS011;14230;45.382;10.998;2023-04-24T03:57:52;38.78;;;26.08;;
26582;SDS011;14230;45.382;10.998;2023-04-24T04:00:21;37.97;;;24.13;;
26582;SDS011;14230;45.382;10.998;2023-04-24T04:03:01;38.55;;;26.40;;
26582;SDS011;14230;45.382;10.998;2023-04-24T04:05:29;33.80;;;25.40;;
26582;SDS011;14230;45.382;10.998;2023-04-24T04:07:57;36.90;;;26.77;;
26582;SDS011;14230;45.382;10.998;2023-04-24T04:10:24;39.05;;;25.92;;
26582;SDS011;14230;45.382;10.998;2023-04-24T04:12:52;33.88;;;24.58;;
26582;SDS011;14230;45.382;10.998;2023-04-24T04:15:19;40.33;;;26.30;;
26582;SDS011;14230;45.382;10.998;2023-04-24T04:17:49;38.65;;;26.83;;
26582;SDS011;14230;45.382;10.998;2023-04-24T04:20:16;42.10;;;27.70;;
26582;SDS011;14230;45.382;10.998;2023-04-24T04:22:44;39.25;;;27.48;;
26582;SDS011;14230;45.382;10.998;2023-04-24T04:25:17;37.60;;;26.75;;
26582;SDS011;14230;45.382;10.998;2023-04-24T04:27:46;40.33;;;26.73;;
26582;SDS011;14230;45.382;10.998;2023-04-24T04:30:17;39.17;;;26.43;;
26582;SDS011;14230;45.382;10.998;2023-04-24T04:32:51;39.35;;;29.27;;
26582;SDS011;14230;45.382;10.998;2023-04-24T04:35:20;39.33;;;28.58;;
26582;SDS011;14230;45.382;10.998;2023-04-24T04:37:50;44.15;;;30.63;;
26582;SDS011;14230;45.382;10.998;2023-04-24T04:40:36;46.60;;;30.40;;
26582;SDS011;14230;45.382;10.998;2023-04-24T04:43:05;47.08;;;29.25;;
26582;SDS011;14230;45.382;10.998;2023-04-24T04:45:41;48.65;;;29.65;;
26582;SDS011;14230;45.382;10.998;2023-04-24T04:48:37;44.38;;;27.73;;
26582;SDS011;14230;45.382;10.998;2023-04-24T04:51:06;34.75;;;26.77;;
26582;SDS011;14230;45.382;10.998;2023-04-24T04:53:33;39.63;;;29.10;;
26582;SDS011;14230;45.382;10.998;2023-04-24T04:56:01;47.17;;;31.92;;
26582;SDS011;14230;45.382;10.998;2023-04-24T04:58:35;45.58;;;32.78;;
26582;SDS011;14230;45.382;10.998;2023-04-24T05:01:06;47.03;;;33.35;;
26582;SDS011;14230;45.382;10.998;2023-04-24T05:03:39;46.50;;;33.22;;
26582;SDS011;14230;45.382;10.998;2023-04-24T05:06:10;47.97;;;33.35;;
26582;SDS011;14230;45.382;10.998;2023-04-24T05:08:39;42.60;;;30.70;;
26582;SDS011;14230;45.382;10.998;2023-04-24T05:11:16;37.25;;;28.77;;
26582;SDS011;14230;45.382;10.998;2023-04-24T05:13:43;43.78;;;30.45;;
26582;SDS011;14230;45.382;10.998;2023-04-24T05:16:16;42.80;;;29.27;;
26582;SDS011;14230;45.382;10.998;2023-04-24T05:18:44;38.95;;;28.88;;
26582;SDS011;14230;45.382;10.998;2023-04-24T05:21:14;43.67;;;30.08;;
26582;SDS011;14230;45.382;10.998;2023-04-24T05:23:45;45.83;;;31.70;;
26582;SDS011;14230;45.382;10.998;2023-04-24T05:26:19;38.53;;;28.20;;
26582;SDS011;14230;45.382;10.998;2023-04-24T05:28:46;35.95;;;27.35;;
26582;SDS011;14230;45.382;10.998;2023-04-24T05:31:15;35.42;;;26.60;;
26582;SDS011;14230;45.382;10.998;2023-04-24T05:33:44;37.60;;;28.75;;
26582;SDS011;14230;45.382;10.998;2023-04-24T05:36:12;38.95;;;29.15;;
26582;SDS011;14230;45.382;10.998;2023-04-24T05:38:40;42.38;;;31.58;;
26582;SDS011;14230;45.382;10.998;2023-04-24T05:41:08;34.13;;;26.10;;
26582;SDS011;14230;45.382;10.998;2023-04-24T05:43:35;37.83;;;29.08;;
26582;SDS011;14230;45.382;10.998;2023-04-24T05:46:03;39.35;;;27.02;;
26582;SDS011;14230;45.382;10.998;2023-04-24T05:48:30;39.53;;;26.17;;
26582;SDS011;14230;45.382;10.998;2023-04-24T05:51:00;37.28;;;27.83;;
26582;SDS011;14230;45.382;10.998;2023-04-24T05:53:28;34.55;;;27.65;;
26582;SDS011;14230;45.382;10.998;2023-04-24T05:55:55;35.55;;;27.42;;
26582;SDS011;14230;45.382;10.998;2023-04-24T05:58:24;36.45;;;27.90;;
26582;SDS011;14230;45.382;10.998;2023-04-24T06:00:51;34.97;;;23.58;;
26582;SDS011;14230;45.382;10.998;2023-04-24T06:03:19;27.17;;;21.30;;
26582;SDS011;14230;45.382;10.998;2023-04-24T06:05:49;28.13;;;22.08;;
26582;SDS011;14230;45.382;10.998;2023-04-24T06:08:18;24.45;;;19.27;;
26582;SDS011;14230;45.382;10.998;2023-04-24T06:10:47;23.48;;;17.58;;
26582;SDS011;14230;45.382;10.998;2023-04-24T06:13:16;24.35;;;18.33;;
26582;SDS011;14230;45.382;10.998;2023-04-24T06:16:00;22.75;;;18.73;;
26582;SDS011;14230;45.382;10.998;2023-04-24T06:18:33;20.85;;;17.63;;
26582;SDS011;14230;45.382;10.998;2023-04-24T06:21:00;21.25;;;18.02;;
26582;SDS011;14230;45.382;10.998;2023-04-24T06:23:29;25.17;;;20.65;;
26582;SDS011;14230;45.382;10.998;2023-04-24T06:25:59;25.67;;;21.50;;
26582;SDS011;14230;45.382;10.998;2023-04-24T06:28:26;26.15;;;18.60;;
26582;SDS011;14230;45.382;10.998;2023-04-24T06:30:54;20.35;;;17.30;;
26582;SDS011;14230;45.382;10.998;2023-04-24T06:33:21;16.50;;;13.40;;
26582;SDS011;14230;45.382;10.998;2023-04-24T06:35:49;14.02;;;11.25;;
26582;SDS011;14230;45.382;10.998;2023-04-24T06:38:17;13.30;;;9.18;;
26582;SDS011;14230;45.382;10.998;2023-04-24T06:40:44;10.38;;;8.32;;
26582;SDS011;14230;45.382;10.998;2023-04-24T06:43:12;11.68;;;7.80;;
26582;SDS011;14230;45.382;10.998;2023-04-24T06:45:39;10.35;;;7.13;;
26582;SDS011;14230;45.382;10.998;2023-04-24T06:48:07;17.33;;;12.85;;
26582;SDS011;14230;45.382;10.998;2023-04-24T06:50:34;10.52;;;9.30;;
26582;SDS011;14230;45.382;10.998;2023-04-24T06:53:02;13.60;;;11.30;;
26582;SDS011;14230;45.382;10.998;2023-04-24T06:55:29;17.23;;;12.57;;
26582;SDS011;14230;45.382;10.998;2023-04-24T06:57:57;15.60;;;12.93;;
26582;SDS011;14230;45.382;10.998;2023-04-24T07:00:25;16.92;;;13.43;;
26582;SDS011;14230;45.382;10.998;2023-04-24T07:02:53;15.73;;;12.98;;
26582;SDS011;14230;45.382;10.998;2023-04-24T07:05:20;14.85;;;11.45;;
26582;SDS011;14230;45.382;10.998;2023-04-24T07:07:48;13.23;;;11.57;;
26582;SDS011;14230;45.382;10.998;2023-04-24T07:10:16;15.27;;;13.30;;
26582;SDS011;14230;45.382;10.998;2023-04-24T07:12:44;14.70;;;11.98;;
26582;SDS011;14230;45.382;10.998;2023-04-24T07:15:13;21.60;;;13.90;;
26582;SDS011;14230;45.382;10.998;2023-04-24T07:17:40;14.23;;;11.43;;
26582;SDS011;14230;45.382;10.998;2023-04-24T07:20:11;11.07;;;8.93;;
26582;SDS011;14230;45.382;10.998;2023-04-24T07:22:38;8.05;;;7.25;;
26582;SDS011;14230;45.382;10.998;2023-04-24T07:25:06;5.25;;;4.30;;
26582;SDS011;14230;45.382;10.998;2023-04-24T07:27:34;3.97;;;3.22;;
26582;SDS011;14230;45.382;10.998;2023-04-24T07:30:03;5.35;;;2.35;;
26582;SDS011;14230;45.382;10.998;2023-04-24T07:32:31;4.97;;;1.23;;
26582;SDS011;14230;45.382;10.998;2023-04-24T07:34:59;0.90;;;0.73;;
26582;SDS011;14230;45.382;10.998;2023-04-24T07:37:27;1.40;;;1.23;;
26582;SDS011;14230;45.382;10.998;2023-04-24T07:39:55;1.20;;;1.10;;
26582;SDS011;14230;45.382;10.998;2023-04-24T07:42:23;1.02;;;0.70;;
26582;SDS011;14230;45.382;10.998;2023-04-24T07:44:50;0.88;;;0.88;;
26582;SDS011;14230;45.382;10.998;2023-04-24T07:47:17;3.55;;;1.10;;
26582;SDS011;14230;45.382;10.998;2023-04-24T07:49:45;1.25;;;0.70;;
26582;SDS011;14230;45.382;10.998;2023-04-24T07:52:12;1.90;;;0.80;;
26582;SDS011;14230;45.382;10.998;2023-04-24T07:54:40;0.63;;;0.50;;
26582;SDS011;14230;45.382;10.998;2023-04-24T07:57:08;1.35;;;0.85;;
26582;SDS011;14230;45.382;10.998;2023-04-24T07:59:35;0.60;;;0.60;;
26582;SDS011;14230;45.382;10.998;2023-04-24T08:02:03;1.45;;;0.68;;
26582;SDS011;14230;45.382;10.998;2023-04-24T08:04:31;2.10;;;0.70;;
26582;SDS011;14230;45.382;10.998;2023-04-24T08:06:59;3.78;;;0.73;;
26582;SDS011;14230;45.382;10.998;2023-04-24T08:09:26;2.00;;;0.80;;
26582;SDS011;14230;45.382;10.998;2023-04-24T08:11:54;1.30;;;1.20;;
26582;SDS011;14230;45.382;10.998;2023-04-24T08:14:21;1.88;;;1.00;;
26582;SDS011;14230;45.382;10.998;2023-04-24T08:16:49;2.13;;;1.20;;
26582;SDS011;14230;45.382;10.998;2023-04-24T08:19:16;4.00;;;1.50;;
26582;SDS011;14230;45.382;10.998;2023-04-24T08:21:44;1.20;;;1.08;;
26582;SDS011;14230;45.382;10.998;2023-04-24T08:24:11;2.03;;;0.98;;
26582;SDS011;14230;45.382;10.998;2023-04-24T08:26:39;1.77;;;1.20;;
26582;SDS011;14230;45.382;10.998;2023-04-24T08:29:06;1.38;;;1.27;;
26582;SDS011;14230;45.382;10.998;2023-04-24T08:31:34;1.33;;;1.20;;
26582;SDS011;14230;45.382;10.998;2023-04-24T08:34:02;3.92;;;3.08;;
26582;SDS011;14230;45.382;10.998;2023-04-24T08:36:30;9.60;;;6.82;;
26582;SDS011;14230;45.382;10.998;2023-04-24T08:39:12;1.00;;;1.00;;
26582;SDS011;14230;45.382;10.998;2023-04-24T08:41:39;6.72;;;1.77;;
26582;SDS011;14230;45.382;10.998;2023-04-24T08:44:09;6.80;;;1.00;;
26582;SDS011;14230;45.382;10.998;2023-04-24T08:46:38;0.98;;;0.90;;
26582;SDS011;14230;45.382;10.998;2023-04-24T08:49:07;6.07;;;0.90;;
26582;SDS011;14230;45.382;10.998;2023-04-24T08:51:36;2.13;;;0.93;;
26582;SDS011;14230;45.382;10.998;2023-04-24T08:54:04;1.55;;;1.00;;
26582;SDS011;14230;45.382;10.998;2023-04-24T08:56:33;2.08;;;1.13;;
26582;SDS011;14230;45.382;10.998;2023-04-24T08:59:05;1.48;;;1.17;;
26582;SDS011;14230;45.382;10.998;2023-04-24T09:01:33;3.00;;;1.40;;
26582;SDS011;14230;45.382;10.998;2023-04-24T09:04:02;0.93;;;0.93;;
26582;SDS011;14230;45.382;10.998;2023-04-24T09:06:30;1.80;;;1.38;;
26582;SDS011;14230;45.382;10.998;2023-04-24T09:09:00;1.65;;;1.40;;
26582;SDS011;14230;45.382;10.998;2023-04-24T09:11:30;2.45;;;1.20;;
26582;SDS011;14230;45.382;10.998;2023-04-24T09:13:58;2.85;;;1.15;;
26582;SDS011;14230;45.382;10.998;2023-04-24T09:16:27;1.60;;;1.50;;
26582;SDS011;14230;45.382;10.998;2023-04-24T09:18:55;6.47;;;1.33;;
26582;SDS011;14230;45.382;10.998;2023-04-24T09:21:22;8.05;;;2.58;;
26582;SDS011;14230;45.382;10.998;2023-04-24T09:24:00;20.83;;;10.48;;
26582;SDS011;14230;45.382;10.998;2023-04-24T09:26:30;13.18;;;6.78;;
26582;SDS011;14230;45.382;10.998;2023-04-24T09:28:59;5.35;;;2.55;;
26582;SDS011;14230;45.382;10.998;2023-04-24T09:31:28;4.22;;;1.58;;
26582;SDS011;14230;45.382;10.998;2023-04-24T09:33:57;4.35;;;1.75;;
26582;SDS011;14230;45.382;10.998;2023-04-24T09:36:32;2.85;;;1.45;;
26582;SDS011;14230;45.382;10.998;2023-04-24T09:39:10;3.17;;;1.98;;
26582;SDS011;14230;45.382;10.998;2023-04-24T09:41:46;2.40;;;1.80;;
26582;SDS011;14230;45.382;10.998;2023-04-24T09:44:16;3.22;;;1.60;;
26582;SDS011;14230;45.382;10.998;2023-04-24T09:46:44;3.40;;;1.70;;
26582;SDS011;14230;45.382;10.998;2023-04-24T09:49:16;8.43;;;1.80;;
26582;SDS011;14230;45.382;10.998;2023-04-24T09:52:06;5.53;;;2.03;;
26582;SDS011;14230;45.382;10.998;2023-04-24T09:54:34;5.47;;;1.80;;
26582;SDS011;14230;45.382;10.998;2023-04-24T09:57:03;1.83;;;1.60;;
26582;SDS011;14230;45.382;10.998;2023-04-24T09:59:31;1.45;;;1.15;;
26582;SDS011;14230;45.382;10.998;2023-04-24T10:02:00;1.75;;;1.52;;
26582;SDS011;14230;45.382;10.998;2023-04-24T10:04:28;1.05;;;1.05;;
26582;SDS011;14230;45.382;10.998;2023-04-24T10:06:56;2.72;;;1.33;;
26582;SDS011;14230;45.382;10.998;2023-04-24T10:09:25;5.10;;;2.00;;
26582;SDS011;14230;45.382;10.998;2023-04-24T10:11:54;2.30;;;1.63;;
26582;SDS011;14230;45.382;10.998;2023-04-24T10:14:22;2.08;;;1.95;;
26582;SDS011;14230;45.382;10.998;2023-04-24T10:16:52;4.80;;;1.50;;
26582;SDS011;14230;45.382;10.998;2023-04-24T10:19:21;2.38;;;1.38;;
26582;SDS011;14230;45.382;10.998;2023-04-24T10:21:52;3.17;;;1.60;;
26582;SDS011;14230;45.382;10.998;2023-04-24T10:24:22;3.00;;;1.40;;
26582;SDS011;14230;45.382;10.998;2023-04-24T10:26:50;2.20;;;2.00;;
26582;SDS011;14230;45.382;10.998;2023-04-24T10:29:18;3.33;;;1.52;;
26582;SDS011;14230;45.382;10.998;2023-04-24T10:31:46;1.52;;;1.45;;
26582;SDS011;14230;45.382;10.998;2023-04-24T10:34:15;1.77;;;1.67;;
26582;SDS011;14230;45.382;10.998;2023-04-24T10:36:53;3.03;;;2.47;;
26582;SDS011;14230;45.382;10.998;2023-04-24T10:39:24;2.22;;;2.08;;
26582;SDS011;14230;45.382;10.998;2023-04-24T10:41:54;3.72;;;3.42;;
26582;SDS011;14230;45.382;10.998;2023-04-24T10:44:25;3.37;;;3.03;;
26582;SDS011;14230;45.382;10.998;2023-04-24T10:47:07;5.27;;;3.03;;
26582;SDS011;14230;45.382;10.998;2023-04-24T10:49:40;4.10;;;3.22;;
26582;SDS011;14230;45.382;10.998;2023-04-24T10:52:08;3.28;;;2.75;;
26582;SDS011;14230;45.382;10.998;2023-04-24T10:54:45;3.53;;;3.20;;
26582;SDS011;14230;45.382;10.998;2023-04-24T11:00:10;5.18;;;3.28;;
26582;SDS011;14230;45.382;10.998;2023-04-24T11:02:42;4.20;;;3.20;;
26582;SDS011;14230;45.382;10.998;2023-04-24T11:05:16;6.38;;;4.20;;
26582;SDS011;14230;45.382;10.998;2023-04-24T11:10:39;7.65;;;3.90;;
26582;SDS011;14230;45.382;10.998;2023-04-24T11:13:07;6.43;;;3.72;;
26582;SDS011;14230;45.382;10.998;2023-04-24T11:15:36;6.65;;;3.58;;
26582;SDS011;14230;45.382;10.998;2023-04-24T11:18:05;7.68;;;3.65;;
26582;SDS011;14230;45.382;10.998;2023-04-24T11:20:33;3.15;;;2.53;;
26582;SDS011;14230;45.382;10.998;2023-04-24T11:23:03;3.92;;;2.60;;
26582;SDS011;14230;45.382;10.998;2023-04-24T11:25:31;4.40;;;2.65;;
26582;SDS011;14230;45.382;10.998;2023-04-24T11:28:03;3.42;;;2.45;;
26582;SDS011;14230;45.382;10.998;2023-04-24T11:30:33;3.80;;;2.05;;
26582;SDS011;14230;45.382;10.998;2023-04-24T11:33:04;2.30;;;2.10;;
26582;SDS011;14230;45.382;10.998;2023-04-24T11:35:38;1.85;;;1.70;;
26582;SDS011;14230;45.382;10.998;2023-04-24T11:38:06;2.45;;;1.52;;
26582;SDS011;14230;45.382;10.998;2023-04-24T11:40:51;2.47;;;2.15;;
26582;SDS011;14230;45.382;10.998;2023-04-24T11:43:19;1.85;;;1.67;;
26582;SDS011;14230;45.382;10.998;2023-04-24T11:45:47;2.25;;;1.73;;
26582;SDS011;14230;45.382;10.998;2023-04-24T11:48:19;2.50;;;1.67;;
26582;SDS011;14230;45.382;10.998;2023-04-24T11:50:50;2.55;;;1.70;;
26582;SDS011;14230;45.382;10.998;2023-04-24T11:53:19;2.03;;;1.83;;
26582;SDS011;14230;45.382;10.998;2023-04-24T11:55:48;2.20;;;1.80;;
26582;SDS011;14230;45.382;10.998;2023-04-24T11:58:16;3.08;;;2.00;;
26582;SDS011;14230;45.382;10.998;2023-04-24T12:00:55;2.70;;;2.40;;
26582;SDS011;14230;45.382;10.998;2023-04-24T12:03:24;5.65;;;2.67;;
26582;SDS011;14230;45.382;10.998;2023-04-24T12:05:52;3.58;;;1.95;;
26582;SDS011;14230;45.382;10.998;2023-04-24T12:08:29;2.45;;;2.00;;
26582;SDS011;14230;45.382;10.998;2023-04-24T12:10:56;4.10;;;2.63;;
26582;SDS011;14230;45.382;10.998;2023-04-24T12:13:25;4.82;;;2.42;;
26582;SDS011;14230;45.382;10.998;2023-04-24T12:15:52;3.53;;;2.10;;
26582;SDS011;14230;45.382;10.998;2023-04-24T12:18:23;2.70;;;1.95;;
26582;SDS011;14230;45.382;10.998;2023-04-24T12:20:51;4.07;;;2.20;;
26582;SDS011;14230;45.382;10.998;2023-04-24T12:23:34;2.67;;;2.47;;
26582;SDS011;14230;45.382;10.998;2023-04-24T12:26:05;6.65;;;2.47;;
26582;SDS011;14230;45.382;10.998;2023-04-24T12:28:37;4.25;;;2.72;;
26582;SDS011;14230;45.382;10.998;2023-04-24T12:31:05;5.97;;;5.05;;
26582;SDS011;14230;45.382;10.998;2023-04-24T12:33:34;5.40;;;2.33;;
26582;SDS011;14230;45.382;10.998;2023-04-24T12:36:02;4.85;;;2.75;;
26582;SDS011;14230;45.382;10.998;2023-04-24T12:38:30;4.63;;;2.70;;
26582;SDS011;14230;45.382;10.998;2023-04-24T12:41:07;2.95;;;2.45;;
26582;SDS011;14230;45.382;10.998;2023-04-24T12:43:53;5.00;;;2.00;;
26582;SDS011;14230;45.382;10.998;2023-04-24T12:46:22;2.75;;;2.55;;
26582;SDS011;14230;45.382;10.998;2023-04-24T12:48:49;3.50;;;2.42;;
26582;SDS011;14230;45.382;10.998;2023-04-24T12:51:20;4.97;;;3.28;;
26582;SDS011;14230;45.382;10.998;2023-04-24T12:53:47;4.70;;;2.60;;
26582;SDS011;14230;45.382;10.998;2023-04-24T12:56:15;2.85;;;1.92;;
26582;SDS011;14230;45.382;10.998;2023-04-24T12:58:42;3.15;;;2.08;;
26582;SDS011;14230;45.382;10.998;2023-04-24T13:01:10;2.75;;;1.50;;
26582;SDS011;14230;45.382;10.998;2023-04-24T13:03:38;2.88;;;2.00;;
26582;SDS011;14230;45.382;10.998;2023-04-24T13:06:06;4.40;;;2.08;;
26582;SDS011;14230;45.382;10.998;2023-04-24T13:08:33;2.10;;;1.80;;
26582;SDS011;14230;45.382;10.998;2023-04-24T13:11:00;1.77;;;1.67;;
26582;SDS011;14230;45.382;10.998;2023-04-24T13:13:29;1.60;;;1.30;;
26582;SDS011;14230;45.382;10.998;2023-04-24T13:15:56;1.75;;;1.48;;
26582;SDS011;14230;45.382;10.998;2023-04-24T13:18:25;1.85;;;1.45;;
26582;SDS011;14230;45.382;10.998;2023-04-24T13:20:52;4.20;;;1.73;;
26582;SDS011;14230;45.382;10.998;2023-04-24T13:23:20;1.60;;;1.50;;
26582;SDS011;14230;45.382;10.998;2023-04-24T13:25:47;1.95;;;1.38;;
26582;SDS011;14230;45.382;10.998;2023-04-24T13:28:15;5.20;;;1.52;;
26582;SDS011;14230;45.382;10.998;2023-04-24T13:30:43;4.22;;;2.00;;
26582;SDS011;14230;45.382;10.998;2023-04-24T13:33:10;2.08;;;1.70;;
26582;SDS011;14230;45.382;10.998;2023-04-24T13:35:38;3.55;;;2.00;;
26582;SDS011;14230;45.382;10.998;2023-04-24T13:38:05;3.72;;;2.28;;
26582;SDS011;14230;45.382;10.998;2023-04-24T13:40:33;4.13;;;2.10;;
26582;SDS011;14230;45.382;10.998;2023-04-24T13:43:01;2.35;;;1.95;;
26582;SDS011;14230;45.382;10.998;2023-04-24T13:45:28;2.38;;;2.15;;
26582;SDS011;14230;45.382;10.998;2023-04-24T13:47:56;4.72;;;2.95;;
26582;SDS011;14230;45.382;10.998;2023-04-24T13:50:24;2.95;;;2.42;;
26582;SDS011;14230;45.382;10.998;2023-04-24T13:52:52;3.13;;;2.47;;
26582;SDS011;14230;45.382;10.998;2023-04-24T13:55:19;6.45;;;2.78;;
26582;SDS011;14230;45.382;10.998;2023-04-24T13:57:47;4.57;;;2.63;;
26582;SDS011;14230;45.382;10.998;2023-04-24T14:00:14;2.70;;;2.28;;
26582;SDS011;14230;45.382;10.998;2023-04-24T14:02:42;4.28;;;2.38;;
26582;SDS011;14230;45.382;10.998;2023-04-24T14:05:10;4.93;;;2.13;;
26582;SDS011;14230;45.382;10.998;2023-04-24T14:07:38;2.97;;;2.15;;
26582;SDS011;14230;45.382;10.998;2023-04-24T14:10:05;4.80;;;2.08;;
26582;SDS011;14230;45.382;10.998;2023-04-24T14:12:33;2.03;;;1.83;;
26582;SDS011;14230;45.382;10.998;2023-04-24T14:15:01;3.55;;;2.63;;
26582;SDS011;14230;45.382;10.998;2023-04-24T14:17:30;6.97;;;2.35;;
26582;SDS011;14230;45.382;10.998;2023-04-24T14:19:58;7.57;;;5.30;;
26582;SDS011;14230;45.382;10.998;2023-04-24T14:22:27;7.78;;;5.45;;
26582;SDS011;14230;45.382;10.998;2023-04-24T14:24:54;9.38;;;3.90;;
26582;SDS011;14230;45.382;10.998;2023-04-24T14:27:22;10.30;;;4.45;;
26582;SDS011;14230;45.382;10.998;2023-04-24T14:29:52;8.05;;;5.53;;
26582;SDS011;14230;45.382;10.998;2023-04-24T14:32:19;8.27;;;7.22;;
26582;SDS011;14230;45.382;10.998;2023-04-24T14:34:47;6.13;;;5.38;;
26582;SDS011;14230;45.382;10.998;2023-04-24T14:37:14;6.60;;;4.85;;
26582;SDS011;14230;45.382;10.998;2023-04-24T14:39:42;5.03;;;4.53;;